Portada
METAR-TAF:

METAR-TAF

Aeropuertos :

Stewart, Columbia Británica, Canadá

latitud: 55-56N, longitud: 129-59W, altitud: 7 m

Observación

El informe se hizo hace 20 minutos, a las 01:00 UTC
Viento 4 kt del sur-suroeste, variando entre sur y oeste-suroeste
Temperatura 14°C
Humedad 88%
Presión 1025 hPa
Visibilidad: 24.1 km
Cielo nuboso a una altura de 6500 ft
Cielo cubierto a una altura de 20000 ft

METAR: CZST 250100Z 20004KT 170V240 15SM BKN065 OVC200 14/12 A3026 RMK SC6CS2 INTMT -RA/ LAST STFD OBS/NEXT251300Z SLP249

Hora: 18:20 (01:20 UTC)


TAF: falta

Observaciones y pronósticos meteorológicos de más de 4000 aeropuertos (mensajes METAR y TAF).

Los puntos amarillos y rojos representan las estaciones disponibles.

Ponga el ratón en el punto deseado para ver el nombre de la estación.

Haga clic para ver las observaciones y los pronósticos meteorológicos.

Para cambiar el mapa : haga clic en los botones verdes con una cruz de color negro para hacer un zoom, en el botón verde con un guión para alejar o en las flechas verdes para mapas adyacentes.


METAR-TAF: